createdAt,value
2023-03-10T00:01:24.367Z,95863.28
2023-03-10T00:03:55.458Z,95862.28
2023-03-10T00:06:26.538Z,95851.34
2023-03-10T00:08:55.288Z,95854.44
2023-03-10T00:11:24.063Z,95849.97
2023-03-10T00:13:52.747Z,95847.16
2023-03-10T00:16:24.786Z,95843.31
2023-03-10T00:18:54.572Z,95849.59
2023-03-10T00:21:26.325Z,95839.31
2023-03-10T00:23:55.038Z,95839.91
2023-03-10T00:26:24.462Z,95840.38
2023-03-10T00:28:52.979Z,95838.22
2023-03-10T00:31:23.498Z,95829.06
2023-03-10T00:33:53.464Z,95824.63
2023-03-10T00:36:24.820Z,95823.59
2023-03-10T00:38:56.084Z,95824.25
2023-03-10T00:41:26.999Z,95817.09
2023-03-10T00:43:55.488Z,95810.84
2023-03-10T00:46:23.897Z,95800.06
2023-03-10T00:48:53.941Z,95800.88
2023-03-10T00:51:23.415Z,95793.13
2023-03-10T00:53:51.848Z,95796.22
2023-03-10T00:56:22.792Z,95793.56
2023-03-10T00:58:53.557Z,95791.13
2023-03-10T01:01:25.482Z,95783.00
2023-03-10T01:03:58.068Z,95783.00
2023-03-10T01:06:27.662Z,95779.34
2023-03-10T01:08:56.526Z,95766.94
2023-03-10T01:15:24.780Z,95764.03
2023-03-10T01:17:53.081Z,95754.47
2023-03-10T01:20:22.798Z,95751.44
2023-03-10T01:22:51.033Z,95761.00
2023-03-10T01:25:19.417Z,95749.44
2023-03-10T01:27:47.672Z,95752.09
2023-03-10T01:30:16.529Z,95745.78
2023-03-10T01:32:44.805Z,95738.84
2023-03-10T01:35:14.042Z,95736.22
2023-03-10T01:37:44.607Z,95735.56
2023-03-10T01:40:18.717Z,95726.00
2023-03-10T01:42:47.489Z,95718.44
2023-03-10T01:46:22.468Z,95716.97
2023-03-10T01:48:51.014Z,95699.59
2023-03-10T01:51:19.824Z,95694.09
2023-03-10T01:53:49.508Z,95686.34
2023-03-10T01:56:18.880Z,95683.91
2023-03-10T01:58:48.515Z,95679.63
2023-03-10T02:01:19.161Z,95673.50
2023-03-10T02:03:54.751Z,95678.00
2023-03-10T02:06:24.687Z,95671.06
2023-03-10T02:08:59.790Z,95663.50
2023-03-10T02:11:28.372Z,95658.22
2023-03-10T02:13:57.344Z,95646.38
2023-03-10T02:16:25.655Z,95633.53
2023-03-10T02:18:53.905Z,95635.13
2023-03-10T02:21:33.254Z,95633.03
2023-03-10T02:24:08.793Z,95628.31
2023-03-10T02:26:46.988Z,95629.50
2023-03-10T02:29:23.527Z,95624.34
2023-03-10T02:31:52.443Z,95618.41
2023-03-10T02:34:21.309Z,95622.44
2023-03-10T02:36:49.519Z,95620.16
2023-03-10T02:39:17.767Z,95608.34
2023-03-10T02:41:46.506Z,95597.97
2023-03-10T02:44:20.674Z,95592.41
2023-03-10T02:46:49.007Z,95595.59
2023-03-10T02:49:19.276Z,95599.44
2023-03-10T02:51:48.949Z,95590.03
2023-03-10T02:54:17.494Z,95594.88
2023-03-10T02:56:45.900Z,95589.78
2023-03-10T02:59:16.316Z,95590.78
2023-03-10T03:01:44.570Z,95581.56
2023-03-10T03:04:12.864Z,95585.22
2023-03-10T03:06:41.232Z,95584.78
2023-03-10T03:09:09.532Z,95577.84
2023-03-10T03:11:37.872Z,95577.84
2023-03-10T03:14:06.307Z,95573.97
2023-03-10T03:16:36.011Z,95571.50
2023-03-10T03:19:04.395Z,95568.22
2023-03-10T03:21:33.320Z,95564.13
2023-03-10T03:24:01.634Z,95561.69
2023-03-10T03:26:29.868Z,95557.56
2023-03-10T03:28:58.125Z,95563.88
2023-03-10T03:31:27.115Z,95557.13
2023-03-10T03:33:56.796Z,95561.97
2023-03-10T03:36:24.977Z,95546.31
2023-03-10T03:38:53.174Z,95541.41
2023-03-10T03:41:21.390Z,95534.66
2023-03-10T03:43:49.633Z,95534.03
2023-03-10T03:46:17.990Z,95529.94
2023-03-10T03:48:46.222Z,95533.59
2023-03-10T03:51:15.945Z,95523.22
2023-03-10T03:53:44.227Z,95518.94
2023-03-10T03:56:12.464Z,95522.56
2023-03-10T03:58:40.652Z,95523.59
2023-03-10T04:01:09.897Z,95537.75
2023-03-10T04:03:38.228Z,95539.44
2023-03-10T04:06:08.379Z,95542.88
2023-03-10T04:08:38.219Z,95540.03
2023-03-10T04:11:06.679Z,95550.41
2023-03-10T04:13:34.987Z,95552.06
2023-03-10T04:16:03.235Z,95551.88
2023-03-10T04:18:31.541Z,95554.34
2023-03-10T04:20:59.833Z,95555.13
2023-03-10T04:23:28.355Z,95559.25
2023-03-10T04:25:57.961Z,95563.53
2023-03-10T04:28:26.177Z,95565.97
2023-03-10T04:30:54.419Z,95569.41
2023-03-10T04:33:22.676Z,95567.41
2023-03-10T04:35:51.595Z,95566.41
2023-03-10T04:38:20.393Z,95564.59
2023-03-10T04:40:55.383Z,95577.81
2023-03-10T04:43:25.622Z,95580.06
2023-03-10T04:45:53.967Z,95566.88
2023-03-10T04:48:23.709Z,95576.22
2023-03-10T04:50:57.537Z,95564.03
2023-03-10T04:53:25.968Z,95574.59
2023-03-10T04:55:54.422Z,95576.22
2023-03-10T04:58:24.801Z,95573.59
2023-03-10T05:01:02.717Z,95578.88
2023-03-10T05:03:31.683Z,95588.44
2023-03-10T05:05:59.907Z,95601.66
2023-03-10T05:08:28.236Z,95602.25
2023-03-10T05:10:56.610Z,95608.19
2023-03-10T05:13:26.313Z,95616.94
2023-03-10T05:15:54.748Z,95619.41
2023-03-10T05:18:23.004Z,95620.19
2023-03-10T05:20:55.069Z,95603.75
2023-03-10T05:23:23.428Z,95610.28
2023-03-10T05:25:52.136Z,95617.19
2023-03-10T05:28:20.363Z,95613.56
2023-03-10T05:30:49.912Z,95612.56
2023-03-10T05:33:18.177Z,95612.38
2023-03-10T05:35:46.568Z,95620.94
2023-03-10T05:38:14.997Z,95623.41
2023-03-10T05:40:46.269Z,95617.28
2023-03-10T05:43:17.310Z,95621.56
2023-03-10T05:45:45.857Z,95617.09
2023-03-10T05:48:15.475Z,95617.94
2023-03-10T05:50:43.679Z,95616.75
2023-03-10T05:53:11.851Z,95616.91
2023-03-10T05:55:40.105Z,95618.53
2023-03-10T05:58:08.892Z,95613.09
2023-03-10T06:00:37.099Z,95621.66
2023-03-10T06:03:05.492Z,95623.28
2023-03-10T06:05:35.172Z,95625.13
2023-03-10T06:08:03.413Z,95628.56
2023-03-10T06:10:31.625Z,95618.81
2023-03-10T06:12:59.910Z,95623.09
2023-03-10T06:15:28.229Z,95618.44
2023-03-10T06:17:56.638Z,95626.00
2023-03-10T06:20:25.133Z,95618.09
2023-03-10T06:22:54.760Z,95617.09
2023-03-10T06:25:23.055Z,95620.38
2023-03-10T06:27:51.336Z,95622.03
2023-03-10T06:30:20.877Z,95630.78
2023-03-10T06:32:49.198Z,95620.81
2023-03-10T06:35:17.705Z,95618.19
2023-03-10T06:37:45.956Z,95620.81
2023-03-10T06:40:15.947Z,95613.72
2023-03-10T06:42:45.314Z,95614.38
2023-03-10T06:45:17.214Z,95614.97
2023-03-10T06:47:45.628Z,95617.25
2023-03-10T06:50:14.910Z,95616.06
2023-03-10T06:52:43.291Z,95611.41
2023-03-10T06:55:13.761Z,95612.88
2023-03-10T06:57:43.412Z,95609.03
2023-03-10T07:00:15.829Z,95600.91
2023-03-10T07:02:44.153Z,95586.50
2023-03-10T07:05:14.679Z,95569.84
2023-03-10T07:07:43.264Z,95567.22
2023-03-10T07:10:13.212Z,95559.28
2023-03-10T07:12:42.872Z,95551.16
2023-03-10T07:15:12.391Z,95547.69
2023-03-10T07:17:40.666Z,95546.69
2023-03-10T07:20:11.443Z,95560.53
2023-03-10T07:22:39.704Z,95557.13
2023-03-10T07:25:09.267Z,95575.25
2023-03-10T07:27:37.722Z,95563.44
2023-03-10T07:30:10.199Z,95565.94
2023-03-10T07:32:38.613Z,95553.41
2023-03-10T07:35:08.431Z,95559.22
2023-03-10T07:37:39.521Z,95559.06
2023-03-10T07:40:10.360Z,95560.56
2023-03-10T07:42:38.646Z,95557.78
2023-03-10T07:45:09.568Z,95558.88
2023-03-10T07:47:37.903Z,95562.38
2023-03-10T07:50:07.322Z,95558.00
2023-03-10T07:52:35.571Z,95555.22
2023-03-10T07:55:03.863Z,95556.16
2023-03-10T07:57:32.158Z,95551.13
2023-03-10T08:00:00.482Z,95539.78
2023-03-10T08:02:30.116Z,95536.97
2023-03-10T08:04:58.793Z,95538.25
2023-03-10T08:07:27.645Z,95536.06
2023-03-10T08:09:56.369Z,95526.31
2023-03-10T08:12:24.916Z,95522.22
2023-03-10T08:14:54.007Z,95523.50
2023-03-10T08:17:23.371Z,95513.50
2023-03-10T08:19:53.102Z,95514.91
2023-03-10T08:22:22.721Z,95512.03
2023-03-10T08:24:51.075Z,95507.91
2023-03-10T08:27:19.488Z,95500.94
2023-03-10T08:29:47.739Z,95502.28
2023-03-10T08:32:16.089Z,95503.69
2023-03-10T08:34:44.585Z,95487.50
2023-03-10T08:37:14.263Z,95481.75
2023-03-10T08:39:42.556Z,95467.78
2023-03-10T08:42:12.785Z,95474.50
2023-03-10T08:44:41.829Z,95465.59
2023-03-10T08:47:10.313Z,95466.75
2023-03-10T08:49:38.928Z,95461.97
2023-03-10T08:52:07.900Z,95456.34
2023-03-10T08:54:37.586Z,95448.59
2023-03-10T08:57:06.026Z,95450.81
2023-03-10T08:59:34.584Z,95445.53
2023-03-10T09:02:03.098Z,95444.38
2023-03-10T09:04:31.454Z,95435.56
2023-03-10T09:06:59.684Z,95435.78
2023-03-10T09:09:27.921Z,95435.00
2023-03-10T09:11:57.529Z,95439.00
2023-03-10T09:14:25.865Z,95434.03
2023-03-10T09:16:54.187Z,95438.84
2023-03-10T09:19:22.609Z,95429.94
2023-03-10T09:21:50.873Z,95437.03
2023-03-10T09:24:19.968Z,95436.75
2023-03-10T09:26:48.239Z,95427.00
2023-03-10T09:29:18.469Z,95429.00
2023-03-10T09:31:48.316Z,95427.25
2023-03-10T09:34:16.753Z,95429.00
2023-03-10T09:36:45.175Z,95428.09
2023-03-10T09:39:13.432Z,95433.34
2023-03-10T09:42:14.745Z,95426.06
2023-03-10T09:44:52.670Z,95423.88
2023-03-10T09:47:29.245Z,95423.53
2023-03-10T09:50:18.319Z,95418.88
2023-03-10T09:52:49.001Z,95415.50
2023-03-10T09:55:22.965Z,95421.59
2023-03-10T09:57:54.176Z,95414.84
2023-03-10T10:00:27.998Z,95422.31
2023-03-10T10:03:08.990Z,95423.44
2023-03-10T10:05:39.437Z,95413.94
2023-03-10T10:08:21.536Z,95418.47
2023-03-10T10:10:54.564Z,95414.50
2023-03-10T10:13:25.222Z,95408.69
2023-03-10T10:16:21.443Z,95405.94
2023-03-10T10:19:04.665Z,95414.88
2023-03-10T10:21:42.903Z,95416.63
2023-03-10T10:24:11.511Z,95427.88
2023-03-10T10:26:39.733Z,95424.72
2023-03-10T10:29:17.348Z,95417.91
2023-03-10T10:32:05.490Z,95423.69
2023-03-10T10:34:34.687Z,95408.56
2023-03-10T10:37:03.479Z,95410.44
2023-03-10T10:39:37.734Z,95407.38
2023-03-10T10:42:24.167Z,95404.78
2023-03-10T10:44:54.892Z,95403.03
2023-03-10T10:47:31.545Z,95393.34
2023-03-10T10:50:22.867Z,95393.75
2023-03-10T10:52:54.767Z,95396.19
2023-03-10T10:55:29.180Z,95431.63
2023-03-10T10:58:01.801Z,95428.25
2023-03-10T11:00:33.817Z,95439.75
2023-03-10T11:03:03.955Z,95436.84
2023-03-10T11:05:38.629Z,95450.34
2023-03-10T11:08:20.506Z,95454.47
2023-03-10T11:10:55.961Z,95453.44
2023-03-10T11:13:30.617Z,95446.84
2023-03-10T11:16:08.418Z,95450.44
2023-03-10T11:18:44.612Z,95445.94
2023-03-10T11:21:16.664Z,95454.53
2023-03-10T11:23:56.189Z,95448.75
2023-03-10T11:26:38.158Z,95439.91
2023-03-10T11:29:22.412Z,95455.03
2023-03-10T11:31:59.200Z,95436.31
2023-03-10T11:34:32.762Z,95437.94
2023-03-10T11:37:15.065Z,95442.13
2023-03-10T11:39:52.038Z,95448.38
2023-03-10T11:42:31.674Z,95431.50
2023-03-10T11:45:17.647Z,95426.75
2023-03-10T11:47:58.194Z,95409.28
2023-03-10T11:50:38.983Z,95413.66
2023-03-10T11:53:14.473Z,95394.00
2023-03-10T11:55:43.936Z,95369.09
2023-03-10T11:58:25.870Z,95391.31
2023-03-10T12:00:56.022Z,95395.44
2023-03-10T12:03:39.968Z,95393.69
2023-03-10T12:06:15.171Z,95389.31
2023-03-10T12:08:43.957Z,95396.50
2023-03-10T12:11:18.538Z,95379.88
2023-03-10T12:13:50.589Z,95386.50
2023-03-10T12:16:23.819Z,95385.13
2023-03-10T12:18:53.507Z,95394.28
2023-03-10T12:21:25.545Z,95393.13
2023-03-10T12:23:55.565Z,95389.09
2023-03-10T12:27:03.394Z,95396.09
2023-03-10T12:29:38.382Z,95391.09
2023-03-10T12:32:25.061Z,95379.19
2023-03-10T12:35:46.016Z,95369.53
2023-03-10T12:38:32.379Z,95374.38
2023-03-10T12:41:02.100Z,95369.31
2023-03-10T12:44:04.318Z,95377.34
2023-03-10T12:46:49.045Z,95382.53
2023-03-10T12:49:37.874Z,95385.00
2023-03-10T12:52:25.480Z,95372.25
2023-03-10T12:55:05.039Z,95367.22
2023-03-10T12:57:38.646Z,95363.44
2023-03-10T13:00:18.483Z,95351.25
2023-03-10T13:02:53.944Z,95348.56
2023-03-10T13:05:26.406Z,95350.94
2023-03-10T13:08:00.931Z,95354.00
2023-03-10T13:10:32.199Z,95340.59
2023-03-10T13:13:04.977Z,95330.50
2023-03-10T13:15:34.861Z,95343.72
2023-03-10T13:18:18.716Z,95339.72
2023-03-10T13:20:48.119Z,95338.16
2023-03-10T13:23:24.192Z,95336.81
2023-03-10T13:25:54.720Z,95328.16
2023-03-10T13:28:23.569Z,95333.19
2023-03-10T13:30:51.907Z,95331.00
2023-03-10T13:33:25.756Z,95347.19
2023-03-10T13:35:54.508Z,95343.88
2023-03-10T13:38:24.639Z,95336.81
2023-03-10T13:41:03.207Z,95333.81
2023-03-10T13:43:37.778Z,95335.84
2023-03-10T13:46:09.880Z,95339.03
2023-03-10T13:48:39.886Z,95339.75
2023-03-10T13:51:18.645Z,95339.34
2023-03-10T13:53:52.467Z,95348.34
2023-03-10T13:56:25.196Z,95348.50
2023-03-10T13:58:58.129Z,95340.06
2023-03-10T14:01:29.439Z,95356.03
2023-03-10T14:04:00.398Z,95353.50
2023-03-10T14:06:30.512Z,95351.53
2023-03-10T14:09:19.451Z,95340.19
2023-03-10T14:11:48.883Z,95336.28
2023-03-10T14:14:29.040Z,95341.31
2023-03-10T14:16:59.624Z,95343.66
2023-03-10T14:19:50.949Z,95327.66
2023-03-10T14:22:35.748Z,95340.56
2023-03-10T14:25:14.414Z,95335.44
2023-03-10T14:27:45.866Z,95337.44
2023-03-10T14:30:23.431Z,95342.56
2023-03-10T14:32:52.051Z,95337.09
2023-03-10T14:35:22.779Z,95339.41
2023-03-10T14:37:52.516Z,95355.34
2023-03-10T14:40:24.678Z,95350.25
2023-03-10T14:42:55.042Z,95349.94
2023-03-10T14:45:29.134Z,95353.44
2023-03-10T14:47:59.874Z,95360.31
2023-03-10T14:50:29.656Z,95353.47
2023-03-10T14:52:58.018Z,95357.78
2023-03-10T14:55:27.847Z,95356.63
2023-03-10T14:58:00.783Z,95357.09
2023-03-10T15:00:29.572Z,95350.13
2023-03-10T15:02:58.152Z,95349.19
2023-03-10T15:05:45.164Z,95363.50
2023-03-10T15:08:16.074Z,95358.53
2023-03-10T15:10:48.933Z,95369.09
2023-03-10T15:13:19.080Z,95373.88
2023-03-10T15:15:49.392Z,95389.56
2023-03-10T15:18:20.814Z,95406.03
2023-03-10T15:20:49.601Z,95388.28
2023-03-10T15:23:19.992Z,95385.47
2023-03-10T15:25:50.238Z,95389.03
2023-03-10T15:28:18.711Z,95392.53
2023-03-10T15:30:47.517Z,95379.53
2023-03-10T15:33:16.428Z,95390.34
2023-03-10T15:35:45.211Z,95383.34
2023-03-10T15:38:15.798Z,95400.88
2023-03-10T15:40:44.279Z,95384.28
2023-03-10T15:43:14.000Z,95390.06
2023-03-10T15:45:46.660Z,95400.41
2023-03-10T15:48:14.914Z,95394.69
2023-03-10T15:50:43.984Z,95400.25
2023-03-10T15:53:13.018Z,95399.22
2023-03-10T15:55:43.559Z,95392.13
2023-03-10T15:58:13.690Z,95400.81
2023-03-10T16:00:43.809Z,95414.94
2023-03-10T16:03:12.570Z,95391.84
2023-03-10T16:05:49.040Z,95421.50
2023-03-10T16:08:19.247Z,95431.38
2023-03-10T16:10:53.753Z,95424.06
2023-03-10T16:13:23.874Z,95427.81
2023-03-10T16:15:52.989Z,95446.69
2023-03-10T16:18:21.408Z,95441.88
2023-03-10T16:20:58.574Z,95452.56
2023-03-10T16:23:27.532Z,95466.53
2023-03-10T16:26:08.252Z,95457.22
2023-03-10T16:28:40.903Z,95462.88
2023-03-10T16:31:10.957Z,95465.38
2023-03-10T16:33:39.925Z,95463.00
2023-03-10T16:36:12.695Z,95475.13
2023-03-10T16:38:41.066Z,95465.75
2023-03-10T16:41:11.177Z,95468.47
2023-03-10T16:43:41.188Z,95467.94
2023-03-10T16:46:12.808Z,95471.72
2023-03-10T16:48:43.608Z,95472.38
2023-03-10T16:51:24.532Z,95470.81
2023-03-10T16:53:54.296Z,95476.34
2023-03-10T16:56:25.117Z,95470.91
2023-03-10T16:58:55.196Z,95475.00
2023-03-10T17:01:25.089Z,95468.06
2023-03-10T17:03:54.422Z,95480.22
2023-03-10T17:06:26.866Z,95466.16
2023-03-10T17:08:57.052Z,95486.28
2023-03-10T17:11:27.552Z,95483.25
2023-03-10T17:13:59.968Z,95483.47
2023-03-10T17:16:30.934Z,95483.31
2023-03-10T17:19:01.568Z,95476.56
2023-03-10T17:21:33.324Z,95487.16
2023-03-10T17:24:01.650Z,95484.06
2023-03-10T17:26:30.474Z,95477.50
2023-03-10T17:29:01.268Z,95480.59
2023-03-10T17:31:31.115Z,95476.75
2023-03-10T17:34:01.862Z,95495.00
2023-03-10T17:36:30.968Z,95491.94
2023-03-10T17:39:02.055Z,95495.47
2023-03-10T17:41:31.920Z,95493.00
2023-03-10T17:44:04.547Z,95511.00
2023-03-10T17:46:33.131Z,95500.78
2023-03-10T17:49:01.501Z,95496.34
2023-03-10T17:51:32.185Z,95498.56
2023-03-10T17:54:02.035Z,95506.34
2023-03-10T17:56:31.025Z,95500.41
2023-03-10T17:59:01.246Z,95503.69
2023-03-10T18:01:31.015Z,95503.69
2023-03-10T18:04:01.661Z,95519.25
2023-03-10T18:06:32.956Z,95544.41
2023-03-10T18:09:04.609Z,95581.19
2023-03-10T18:11:34.926Z,95565.88
2023-03-10T18:14:04.985Z,95586.75
2023-03-10T18:16:36.107Z,95585.94
2023-03-10T18:19:05.207Z,95597.00
2023-03-10T18:21:33.558Z,95599.66
2023-03-10T18:24:01.895Z,95615.34
2023-03-10T18:26:31.455Z,95623.94
2023-03-10T18:29:00.759Z,95614.31
2023-03-10T18:31:33.202Z,95613.50
2023-03-10T18:34:02.414Z,95627.19
2023-03-10T18:36:32.937Z,95627.38
2023-03-10T18:39:03.558Z,95629.03
2023-03-10T18:41:32.693Z,95636.97
2023-03-10T18:44:01.646Z,95645.94
2023-03-10T18:46:31.680Z,95653.81
2023-03-10T18:48:59.939Z,95653.81
2023-03-10T18:51:29.499Z,95640.13
2023-03-10T18:53:58.084Z,95646.84
2023-03-10T18:56:29.008Z,95637.88
2023-03-10T18:58:57.410Z,95655.59
2023-03-10T19:01:26.793Z,95655.59
2023-03-10T19:03:56.548Z,95660.06
2023-03-10T19:06:24.913Z,95650.50
2023-03-10T19:08:53.768Z,95659.47
2023-03-10T19:11:24.297Z,95648.59
2023-03-10T19:13:52.810Z,95652.44
2023-03-10T19:16:21.322Z,95670.09
2023-03-10T19:18:49.787Z,95660.53
2023-03-10T19:21:21.936Z,95664.16
2023-03-10T19:23:51.280Z,95653.34
2023-03-10T19:26:19.613Z,95647.00
2023-03-10T19:28:47.825Z,95662.72
2023-03-10T19:31:17.677Z,95668.78
2023-03-10T19:33:46.348Z,95673.91
2023-03-10T19:36:15.529Z,95677.25
2023-03-10T19:38:46.063Z,95660.53
2023-03-10T19:41:16.918Z,95669.50
2023-03-10T19:43:45.786Z,95650.75
2023-03-10T19:46:15.483Z,95665.19
2023-03-10T19:48:44.695Z,95658.06
2023-03-10T19:51:21.905Z,95654.00
2023-03-10T19:53:52.442Z,95641.75
2023-03-10T19:56:21.403Z,95652.91
2023-03-10T19:58:51.004Z,95662.31
2023-03-10T20:01:24.325Z,95674.28
2023-03-10T20:03:53.716Z,95666.34
2023-03-10T20:06:22.718Z,95660.63
2023-03-10T20:08:53.651Z,95667.16
2023-03-10T20:11:22.379Z,95646.16
2023-03-10T20:13:54.170Z,95640.03
2023-03-10T20:16:24.158Z,95645.13
2023-03-10T20:18:52.578Z,95646.97
2023-03-10T20:21:21.093Z,95643.91
2023-03-10T20:23:49.342Z,95650.19
2023-03-10T20:26:19.740Z,95637.88
2023-03-10T20:28:49.661Z,95645.81
2023-03-10T20:31:20.515Z,95655.81
2023-03-10T20:33:49.099Z,95664.91
2023-03-10T20:36:17.750Z,95668.13
2023-03-10T20:38:47.365Z,95665.28
2023-03-10T20:41:19.247Z,95671.31
2023-03-10T20:43:49.008Z,95654.63
2023-03-10T20:46:19.299Z,95661.31
2023-03-10T20:48:49.904Z,95651.09
2023-03-10T20:51:19.350Z,95644.97
2023-03-10T20:53:47.716Z,95648.78
2023-03-10T20:56:16.670Z,95656.53
2023-03-10T20:58:46.480Z,95661.31
2023-03-10T21:01:18.622Z,95661.69
2023-03-10T21:03:47.364Z,95666.78
2023-03-10T21:06:15.736Z,95662.53
2023-03-10T21:08:44.036Z,95664.97
2023-03-10T21:11:12.452Z,95668.63
2023-03-10T21:13:41.218Z,95653.50
2023-03-10T21:16:11.784Z,95672.19
2023-03-10T21:18:40.799Z,95672.84
2023-03-10T21:21:10.408Z,95677.50
2023-03-10T21:23:39.632Z,95676.69
2023-03-10T21:26:12.466Z,95656.47
2023-03-10T21:28:41.147Z,95671.97
2023-03-10T21:31:11.207Z,95665.41
2023-03-10T21:33:41.701Z,95661.75
2023-03-10T21:36:13.284Z,95672.94
2023-03-10T21:38:41.598Z,95660.66
2023-03-10T21:41:10.313Z,95684.91
2023-03-10T21:43:38.622Z,95693.88
2023-03-10T21:46:06.930Z,95705.44
2023-03-10T21:48:36.663Z,95725.97
2023-03-10T21:51:05.552Z,95751.69
2023-03-10T21:53:33.934Z,95731.47
2023-03-10T21:56:02.268Z,95744.06
2023-03-10T21:58:30.530Z,95749.63
2023-03-10T22:00:58.885Z,95745.44
2023-03-10T22:03:27.448Z,95745.81
2023-03-10T22:05:57.237Z,95740.88
2023-03-10T22:08:25.594Z,95753.09
2023-03-10T22:10:53.973Z,95761.22
2023-03-10T22:13:23.067Z,95758.19
2023-03-10T22:15:51.494Z,95762.22
2023-03-10T22:18:19.936Z,95768.53
2023-03-10T22:20:48.254Z,95773.03
2023-03-10T22:23:17.978Z,95782.13
2023-03-10T22:25:46.240Z,95795.69
2023-03-10T22:28:14.598Z,95776.41
2023-03-10T22:30:43.550Z,95778.38
2023-03-10T22:33:11.879Z,95800.75
2023-03-10T22:35:40.307Z,95806.75
2023-03-10T22:38:09.062Z,95806.19
2023-03-10T22:40:38.741Z,95834.84
2023-03-10T22:43:07.014Z,95833.84
2023-03-10T22:45:35.504Z,95863.69
2023-03-10T22:48:06.884Z,95857.00
2023-03-10T22:50:38.168Z,95869.53
2023-03-10T22:53:09.605Z,95875.03
2023-03-10T22:55:42.469Z,95894.34
2023-03-10T22:58:12.072Z,95920.56
2023-03-10T23:00:42.497Z,95915.66
2023-03-10T23:03:13.922Z,95939.09
2023-03-10T23:05:44.983Z,95963.69
2023-03-10T23:08:14.422Z,95964.22
2023-03-10T23:10:45.381Z,95969.63
2023-03-10T23:13:17.271Z,95976.53
2023-03-10T23:15:46.963Z,95983.28
2023-03-10T23:18:15.578Z,95989.56
2023-03-10T23:20:47.815Z,95995.16
2023-03-10T23:23:18.240Z,96000.91
2023-03-10T23:25:51.033Z,96005.84
2023-03-10T23:28:21.656Z,95999.78
2023-03-10T23:30:51.582Z,96009.44
2023-03-10T23:33:22.498Z,96023.09
2023-03-10T23:35:54.058Z,96040.53
2023-03-10T23:38:23.517Z,96034.59
2023-03-10T23:40:55.414Z,96043.25
2023-03-10T23:43:24.239Z,96060.69
2023-03-10T23:45:52.688Z,96053.59
2023-03-10T23:48:23.553Z,96070.34
2023-03-10T23:50:52.206Z,96103.75
2023-03-10T23:53:21.217Z,96078.25
2023-03-10T23:55:49.862Z,96088.13
2023-03-10T23:58:21.253Z,96089.56
